Time;durP1;ratioP1;P1;durP2;ratioP2;P2;SDS_P1;SDS_P2;PMS_P1;PMS_P2;Temp;Humidity;BMP_temperature;BMP_pressure;BME280_temperature;BME280_humidity;BME280_pressure;Samples;Min_cycle;Max_cycle;Signal;HPM_P1;HPM_P2
2022/06/11 00:00:09;;;;;;;3.08;2.47;;;19.60;99.90;;;;;;5070892;28;20768;-72
2022/06/11 00:02:36;;;;;;;6.20;4.10;;;19.60;99.90;;;;;;5070389;28;20226;-73
2022/06/11 00:05:03;;;;;;;6.72;3.08;;;19.60;99.90;;;;;;5070648;28;20803;-72
2022/06/11 00:07:30;;;;;;;4.57;2.70;;;19.60;99.90;;;;;;5070246;28;20260;-72
2022/06/11 00:09:58;;;;;;;2.88;2.55;;;19.70;99.90;;;;;;5070642;28;20240;-72
2022/06/11 00:12:26;;;;;;;3.95;2.50;;;19.60;99.90;;;;;;5070904;28;20302;-72
2022/06/11 00:14:54;;;;;;;4.63;2.63;;;19.50;99.90;;;;;;5070890;28;20293;-72
2022/06/11 00:17:24;;;;;;;3.38;2.92;;;19.30;99.90;;;;;;5070934;28;20249;-71
2022/06/11 00:19:52;;;;;;;3.63;2.88;;;19.30;99.90;;;;;;5070451;28;20230;-71
2022/06/11 00:22:20;;;;;;;3.78;2.72;;;19.30;99.90;;;;;;5071211;28;20582;-73
2022/06/11 00:24:48;;;;;;;4.03;2.83;;;19.30;99.90;;;;;;5070079;28;20293;-72
2022/06/11 00:27:18;;;;;;;6.80;2.83;;;19.30;99.90;;;;;;5070696;28;20271;-72
2022/06/11 00:29:46;;;;;;;4.00;2.88;;;19.30;99.90;;;;;;5070014;28;20295;-73
2022/06/11 00:32:15;;;;;;;5.82;2.58;;;19.30;99.90;;;;;;5070336;28;20263;-77
2022/06/11 00:34:43;;;;;;;3.97;2.50;;;19.30;99.90;;;;;;5070021;28;20264;-72
2022/06/11 00:37:11;;;;;;;6.65;3.35;;;19.30;99.90;;;;;;5070408;28;20202;-76
2022/06/11 00:39:39;;;;;;;3.78;2.55;;;19.30;99.90;;;;;;5069824;28;20611;-72
2022/06/11 00:42:09;;;;;;;4.15;2.30;;;19.20;99.90;;;;;;5070118;28;20225;-72
2022/06/11 00:44:37;;;;;;;3.83;2.55;;;19.10;99.90;;;;;;5069796;28;20206;-73
2022/06/11 00:47:07;;;;;;;4.53;2.60;;;19.10;99.90;;;;;;5070427;28;20210;-76
2022/06/11 00:49:40;;;;;;;4.88;2.33;;;19.00;99.90;;;;;;5070073;28;20217;-76
2022/06/11 00:52:19;;;;;;;5.60;2.40;;;19.00;99.90;;;;;;5057032;28;20338;-73
2022/06/11 00:54:53;;;;;;;5.57;2.63;;;18.90;99.90;;;;;;5069644;28;20288;-76
2022/06/11 00:57:21;;;;;;;4.07;3.00;;;18.80;99.90;;;;;;5072016;28;20206;-76
2022/06/11 00:59:52;;;;;;;4.25;2.30;;;18.80;99.90;;;;;;5073617;28;20233;-72
2022/06/11 01:02:20;;;;;;;4.07;2.28;;;18.80;99.90;;;;;;5074529;28;20267;-72
2022/06/11 01:04:52;;;;;;;3.45;2.38;;;18.80;99.90;;;;;;5073916;28;20218;-72
2022/06/11 01:07:32;;;;;;;4.07;2.72;;;18.80;99.90;;;;;;5074272;28;20209;-72
2022/06/11 01:10:14;;;;;;;4.78;2.60;;;18.80;99.90;;;;;;5074122;28;20206;-75
2022/06/11 01:12:50;;;;;;;3.53;2.85;;;18.80;99.90;;;;;;5073804;28;20205;-71
2022/06/11 01:15:23;;;;;;;3.55;2.35;;;18.70;99.90;;;;;;5073958;28;20641;-72
2022/06/11 01:18:04;;;;;;;3.13;2.15;;;18.60;99.90;;;;;;5073638;28;20248;-72
2022/06/11 01:20:41;;;;;;;4.43;2.47;;;18.60;99.90;;;;;;5060297;28;20760;-73
2022/06/11 01:23:34;;;;;;;5.80;2.10;;;18.50;99.90;;;;;;5073593;28;20681;-72
2022/06/11 01:26:35;;;;;;;3.80;2.38;;;18.50;99.90;;;;;;5073606;28;20658;-72
2022/06/11 01:29:11;;;;;;;6.38;2.80;;;18.50;99.90;;;;;;5060917;28;20209;-72
2022/06/11 01:31:46;;;;;;;3.55;2.22;;;18.50;99.90;;;;;;5072998;28;20248;-75
2022/06/11 01:34:23;;;;;;;4.30;2.35;;;18.50;99.90;;;;;;5073703;28;20202;-76
2022/06/11 01:36:54;;;;;;;2.85;2.03;;;18.50;99.90;;;;;;5072987;28;20673;-71
2022/06/11 01:39:28;;;;;;;3.45;2.42;;;18.50;99.90;;;;;;5073815;28;20369;-72
2022/06/11 01:42:00;;;;;;;2.42;2.22;;;18.40;99.90;;;;;;5073214;28;20635;-72
2022/06/11 01:44:30;;;;;;;4.82;2.80;;;18.40;99.90;;;;;;5072964;28;20751;-72
2022/06/11 01:47:00;;;;;;;3.25;2.00;;;18.40;99.90;;;;;;5073168;28;20218;-72
2022/06/11 01:49:37;;;;;;;3.15;2.08;;;18.30;99.90;;;;;;5072871;28;20249;-71
2022/06/11 01:52:18;;;;;;;5.10;2.63;;;18.20;99.90;;;;;;5073055;28;20209;-71
2022/06/11 01:54:55;;;;;;;2.75;2.00;;;18.00;99.90;;;;;;5072674;28;20198;-71
2022/06/11 01:57:39;;;;;;;3.97;2.70;;;18.00;99.90;;;;;;5073454;28;20210;-72
2022/06/11 02:00:21;;;;;;;1.77;1.67;;;18.10;99.90;;;;;;5073273;28;20238;-76
2022/06/11 02:03:16;;;;;;;3.33;2.17;;;18.10;99.90;;;;;;5072635;28;20206;-72
2022/06/11 02:06:07;;;;;;;3.30;2.10;;;18.10;99.90;;;;;;5072207;28;20210;-75
2022/06/11 02:09:03;;;;;;;4.22;2.28;;;18.10;99.90;;;;;;5072426;28;20260;-72
2022/06/11 02:11:34;;;;;;;4.22;2.03;;;18.00;99.90;;;;;;5072515;28;20210;-75
2022/06/11 02:14:06;;;;;;;2.65;2.28;;;18.00;99.90;;;;;;5072944;28;20209;-71
2022/06/11 02:16:38;;;;;;;6.18;1.75;;;17.90;99.90;;;;;;5072271;28;20207;-71
2022/06/11 02:19:12;;;;;;;3.47;2.38;;;17.90;99.90;;;;;;5072569;28;20230;-76
2022/06/11 02:21:43;;;;;;;2.63;1.92;;;17.90;99.90;;;;;;5072128;28;20209;-74
2022/06/11 02:24:16;;;;;;;2.20;2.08;;;17.90;99.90;;;;;;5072687;28;20264;-71
2022/06/11 02:26:49;;;;;;;2.42;1.73;;;17.70;99.90;;;;;;5071903;28;20210;-71
2022/06/11 02:29:18;;;;;;;3.03;1.77;;;17.60;99.90;;;;;;5072619;28;20661;-76
2022/06/11 02:31:49;;;;;;;4.35;2.50;;;17.50;99.90;;;;;;5072179;28;20217;-71
2022/06/11 02:34:20;;;;;;;1.50;1.40;;;17.60;99.90;;;;;;5072219;28;20207;-71
2022/06/11 02:36:54;;;;;;;2.28;1.65;;;17.80;99.90;;;;;;5072066;28;20325;-71
2022/06/11 02:39:22;;;;;;;3.10;2.03;;;17.90;99.90;;;;;;5072565;28;20268;-72
2022/06/11 02:41:49;;;;;;;2.13;1.80;;;17.80;99.90;;;;;;5071934;28;20224;-72
2022/06/11 02:44:17;;;;;;;3.75;2.13;;;17.80;99.90;;;;;;5072496;28;20205;-76
2022/06/11 02:46:45;;;;;;;2.47;2.10;;;17.80;99.90;;;;;;5072009;28;20271;-71
2022/06/11 02:49:16;;;;;;;3.63;2.50;;;17.70;99.90;;;;;;5071937;28;20289;-72
2022/06/11 02:51:46;;;;;;;4.85;2.28;;;17.70;99.90;;;;;;5071659;28;20206;-71
2022/06/11 02:54:14;;;;;;;2.67;2.05;;;17.70;99.90;;;;;;5072045;28;20267;-71
2022/06/11 02:56:41;;;;;;;3.65;2.28;;;17.80;99.90;;;;;;5069761;28;20275;-73
2022/06/11 02:59:08;;;;;;;2.22;1.50;;;17.80;99.90;;;;;;5072097;28;20206;-77
2022/06/11 03:01:36;;;;;;;2.55;2.10;;;17.80;99.90;;;;;;5077282;28;20206;-72
2022/06/11 03:04:03;;;;;;;4.97;2.03;;;17.70;99.90;;;;;;5090603;28;20270;-73
2022/06/11 03:06:31;;;;;;;2.08;1.58;;;17.60;99.90;;;;;;5079363;28;20205;-72
2022/06/11 03:09:00;;;;;;;2.50;2.05;;;17.70;99.90;;;;;;5092220;28;20267;-73
2022/06/11 03:11:28;;;;;;;2.55;2.35;;;17.70;99.90;;;;;;5092073;28;20255;-73
2022/06/11 03:13:55;;;;;;;2.92;2.22;;;17.70;99.90;;;;;;5079581;28;20202;-73
2022/06/11 03:16:23;;;;;;;9.85;2.25;;;17.60;99.90;;;;;;5090643;28;20308;-74
2022/06/11 03:18:50;;;;;;;1.63;1.50;;;17.60;99.90;;;;;;5091337;28;20209;-77
2022/06/11 03:21:17;;;;;;;5.32;1.88;;;17.50;99.90;;;;;;5090743;28;20789;-77
2022/06/11 03:23:45;;;;;;;2.20;1.92;;;17.50;99.90;;;;;;5091611;28;20205;-72
2022/06/11 03:26:13;;;;;;;3.63;1.75;;;17.50;99.90;;;;;;5091580;28;20555;-76
2022/06/11 03:28:41;;;;;;;4.15;2.47;;;17.60;99.90;;;;;;5091332;28;20636;-73
2022/06/11 03:31:08;;;;;;;3.72;2.78;;;17.60;99.90;;;;;;5077750;28;20214;-73
2022/06/11 03:33:36;;;;;;;3.40;2.00;;;17.40;99.90;;;;;;5090539;28;20204;-76
2022/06/11 03:36:05;;;;;;;5.57;1.75;;;17.40;99.90;;;;;;5091733;28;20201;-75
2022/06/11 03:38:32;;;;;;;4.35;1.80;;;17.40;99.90;;;;;;5091071;28;20201;-72
2022/06/11 03:40:59;;;;;;;2.65;2.22;;;17.40;99.90;;;;;;5091383;28;20653;-76
2022/06/11 03:43:28;;;;;;;2.08;1.70;;;17.50;99.90;;;;;;5091252;28;20213;-76
2022/06/11 03:45:55;;;;;;;3.83;2.40;;;17.50;99.90;;;;;;5090962;28;20583;-72
2022/06/11 03:48:23;;;;;;;2.20;1.60;;;17.50;99.90;;;;;;5091322;28;20201;-72
2022/06/11 03:50:50;;;;;;;7.22;2.28;;;17.40;99.90;;;;;;5091518;28;20601;-74
2022/06/11 03:53:17;;;;;;;3.40;1.77;;;17.50;99.90;;;;;;5091461;28;20202;-70
2022/06/11 03:55:45;;;;;;;3.53;2.28;;;17.50;99.90;;;;;;5076617;28;20230;-69
2022/06/11 03:58:13;;;;;;;2.05;1.85;;;17.40;99.90;;;;;;5090982;28;20252;-79
2022/06/11 04:03:30;;;;;;;4.30;1.55;;;17.40;99.90;;;;;;5064544;28;20302;-71
2022/06/11 04:05:57;;;;;;;2.38;1.77;;;17.40;99.90;;;;;;5076696;28;20202;-70
2022/06/11 04:08:25;;;;;;;2.50;1.55;;;17.40;99.90;;;;;;5090994;28;20206;-70
2022/06/11 04:10:56;;;;;;;2.80;2.17;;;17.40;99.90;;;;;;5090895;28;20206;-70
2022/06/11 04:13:25;;;;;;;2.17;1.95;;;17.40;99.90;;;;;;5091027;28;20665;-74
2022/06/11 04:15:54;;;;;;;2.33;2.03;;;17.30;99.90;;;;;;5090618;28;20209;-73
2022/06/11 04:18:30;;;;;;;3.10;1.63;;;17.30;99.90;;;;;;5091059;28;20581;-74
2022/06/11 04:20:57;;;;;;;3.15;1.90;;;17.30;99.90;;;;;;5090689;28;20229;-69
2022/06/11 04:23:29;;;;;;;2.15;1.95;;;17.20;99.90;;;;;;5090725;28;20266;-69
2022/06/11 04:25:56;;;;;;;4.25;1.95;;;17.10;99.90;;;;;;5090471;28;20556;-69
2022/06/11 04:28:24;;;;;;;3.17;1.73;;;17.10;99.90;;;;;;5091165;28;20258;-69
2022/06/11 04:30:51;;;;;;;3.38;1.70;;;17.10;99.90;;;;;;5090172;28;20202;-68
2022/06/11 04:33:20;;;;;;;2.42;1.95;;;17.00;99.90;;;;;;5090653;28;20684;-69
2022/06/11 04:35:47;;;;;;;4.80;1.80;;;16.90;99.90;;;;;;5090130;28;20224;-69
2022/06/11 04:38:14;;;;;;;5.18;1.90;;;16.90;99.90;;;;;;5090571;28;20610;-72
2022/06/11 04:40:41;;;;;;;1.98;1.60;;;17.00;99.90;;;;;;5090243;28;20361;-70
2022/06/11 04:43:08;;;;;;;2.83;2.00;;;17.10;99.90;;;;;;5090514;28;20197;-70
2022/06/11 04:45:35;;;;;;;2.97;2.13;;;17.20;99.90;;;;;;5090089;28;20289;-72
2022/06/11 04:48:03;;;;;;;4.15;1.90;;;17.20;99.90;;;;;;5090360;28;20231;-70
2022/06/11 04:50:32;;;;;;;2.15;1.92;;;17.30;99.90;;;;;;5089924;28;20673;-70
2022/06/11 04:53:00;;;;;;;4.25;2.00;;;17.30;99.90;;;;;;5086022;28;20299;-70
2022/06/11 04:55:27;;;;;;;2.22;1.65;;;17.30;99.90;;;;;;5065490;28;20673;-70
2022/06/11 04:57:54;;;;;;;2.83;1.98;;;17.20;99.90;;;;;;5090276;28;20369;-70
2022/06/11 05:00:26;;;;;;;2.65;1.50;;;17.30;99.90;;;;;;5074963;28;20680;-71
2022/06/11 05:02:53;;;;;;;1.90;1.67;;;17.30;99.90;;;;;;5071291;28;20267;-71
2022/06/11 05:05:20;;;;;;;2.65;2.03;;;17.20;99.90;;;;;;5073657;28;20511;-70
2022/06/11 05:07:49;;;;;;;4.45;2.05;;;17.30;99.90;;;;;;5076752;28;20271;-69
2022/06/11 05:10:19;;;;;;;4.57;2.25;;;17.30;99.90;;;;;;5090045;28;20205;-70
2022/06/11 05:12:46;;;;;;;1.95;1.75;;;17.50;99.90;;;;;;5089863;28;20197;-69
2022/06/11 05:15:14;;;;;;;2.78;2.08;;;17.50;99.90;;;;;;5089783;28;20240;-70
2022/06/11 05:17:41;;;;;;;3.67;1.70;;;17.60;99.90;;;;;;5089868;28;20205;-70
2022/06/11 05:20:09;;;;;;;2.67;1.75;;;17.70;99.90;;;;;;5089785;28;20233;-70
2022/06/11 05:22:37;;;;;;;2.53;1.77;;;17.70;99.90;;;;;;5089990;28;20201;-69
2022/06/11 05:25:07;;;;;;;2.67;1.80;;;17.80;99.90;;;;;;5089855;28;20330;-71
2022/06/11 05:27:35;;;;;;;3.10;2.05;;;17.90;99.90;;;;;;5089913;28;20205;-71
2022/06/11 05:30:07;;;;;;;6.13;2.50;;;18.00;99.90;;;;;;5089842;28;20245;-71
2022/06/11 05:32:37;;;;;;;2.80;1.80;;;18.20;99.90;;;;;;5090138;28;20210;-71
2022/06/11 05:35:06;;;;;;;2.45;2.05;;;18.30;99.90;;;;;;5089515;28;20205;-69
2022/06/11 05:37:33;;;;;;;4.35;1.80;;;18.40;99.90;;;;;;5090351;28;20214;-73
2022/06/11 05:40:00;;;;;;;2.53;1.85;;;18.50;99.90;;;;;;5084812;28;20233;-69
2022/06/11 05:42:29;;;;;;;2.60;1.88;;;18.60;99.90;;;;;;5069446;28;20221;-68
2022/06/11 05:44:56;;;;;;;2.10;1.70;;;18.70;99.90;;;;;;5072470;28;20259;-69
2022/06/11 05:47:25;;;;;;;5.80;2.20;;;18.80;99.90;;;;;;5072286;28;20232;-71
2022/06/11 05:49:57;;;;;;;2.30;1.80;;;18.90;99.90;;;;;;5073195;28;20210;-68
2022/06/11 05:52:28;;;;;;;4.30;1.63;;;18.90;99.90;;;;;;5071849;28;20205;-69
2022/06/11 05:54:56;;;;;;;4.45;1.90;;;18.90;99.90;;;;;;5070135;28;20670;-70
2022/06/11 05:57:26;;;;;;;2.20;2.00;;;18.90;99.90;;;;;;5072517;28;20619;-70
2022/06/11 05:59:59;;;;;;;5.53;1.98;;;18.80;99.90;;;;;;5059571;28;20252;-75
2022/06/11 06:02:27;;;;;;;2.17;1.60;;;18.70;99.90;;;;;;5073156;28;20214;-71
2022/06/11 06:04:54;;;;;;;3.22;1.52;;;18.70;99.90;;;;;;5073213;28;20290;-72
2022/06/11 06:07:21;;;;;;;2.75;2.13;;;18.60;99.90;;;;;;5089689;28;20669;-74
2022/06/11 06:09:48;;;;;;;3.72;2.72;;;18.50;99.90;;;;;;5093077;28;20754;-71
2022/06/11 06:12:16;;;;;;;2.10;1.83;;;18.40;99.90;;;;;;5093013;28;20292;-71
2022/06/11 06:14:44;;;;;;;2.58;1.73;;;18.40;99.90;;;;;;5093258;28;20285;-71
2022/06/11 06:17:12;;;;;;;4.13;1.85;;;18.50;99.90;;;;;;5092758;28;20213;-71
2022/06/11 06:19:39;;;;;;;4.07;2.15;;;18.70;99.90;;;;;;5092831;28;20202;-71
2022/06/11 06:22:06;;;;;;;3.80;1.90;;;18.70;99.90;;;;;;5092442;28;20232;-71
2022/06/11 06:24:34;;;;;;;2.55;2.10;;;18.60;99.90;;;;;;5092485;28;20205;-71
2022/06/11 06:27:01;;;;;;;2.47;2.15;;;18.50;99.90;;;;;;5092879;28;20746;-71
2022/06/11 06:29:28;;;;;;;8.73;2.05;;;18.60;99.90;;;;;;5092642;28;20673;-71
2022/06/11 06:31:56;;;;;;;3.72;2.35;;;18.80;99.90;;;;;;5093013;28;20680;-71
2022/06/11 06:34:25;;;;;;;8.18;2.67;;;19.00;99.90;;;;;;5092378;28;20210;-71
2022/06/11 06:36:52;;;;;;;3.58;2.65;;;19.20;99.90;;;;;;5092694;28;20247;-71
2022/06/11 06:39:19;;;;;;;3.30;3.00;;;19.40;99.90;;;;;;5092289;28;20282;-72
2022/06/11 06:41:46;;;;;;;2.95;1.77;;;19.60;99.90;;;;;;5092236;28;20282;-70
2022/06/11 06:44:15;;;;;;;2.50;1.75;;;19.70;99.90;;;;;;5092371;28;20282;-71
2022/06/11 06:46:41;;;;;;;4.63;1.70;;;19.80;99.90;;;;;;5092317;28;20206;-73
2022/06/11 06:49:08;;;;;;;3.80;1.73;;;19.90;99.90;;;;;;5092045;28;20201;-72
2022/06/11 06:51:37;;;;;;;6.65;2.30;;;20.00;99.90;;;;;;5092114;28;20206;-71
2022/06/11 06:54:04;;;;;;;3.42;2.15;;;20.10;99.90;;;;;;5091486;28;20241;-72
2022/06/11 06:56:33;;;;;;;4.88;2.00;;;20.00;99.90;;;;;;5091673;28;20205;-73
2022/06/11 06:59:00;;;;;;;4.90;2.08;;;20.10;99.90;;;;;;5092440;28;20726;-74
2022/06/11 07:01:28;;;;;;;3.83;2.50;;;20.20;99.90;;;;;;5092242;28;20287;-74
2022/06/11 07:03:55;;;;;;;4.70;2.17;;;20.40;99.90;;;;;;5089967;28;20240;-73
2022/06/11 07:06:22;;;;;;;2.60;2.05;;;20.50;99.90;;;;;;5079963;28;20209;-73
2022/06/11 07:08:51;;;;;;;8.77;3.35;;;20.50;99.90;;;;;;5091686;28;20672;-74
2022/06/11 07:11:18;;;;;;;5.53;2.38;;;20.70;99.90;;;;;;5091772;28;20205;-73
2022/06/11 07:13:45;;;;;;;3.03;1.73;;;21.00;99.90;;;;;;5092472;28;20266;-74
2022/06/11 07:16:14;;;;;;;2.83;1.70;;;21.00;99.90;;;;;;5091362;28;20254;-74
2022/06/11 07:18:45;;;;;;;4.35;1.85;;;21.20;99.90;;;;;;5091669;28;20615;-73
2022/06/11 07:21:16;;;;;;;3.85;1.58;;;21.30;99.90;;;;;;5091076;28;20221;-73
2022/06/11 07:23:46;;;;;;;5.53;1.90;;;21.40;99.90;;;;;;5091774;28;20266;-74
2022/06/11 07:26:18;;;;;;;4.47;1.90;;;21.60;99.90;;;;;;5091412;28;20201;-74
2022/06/11 07:28:49;;;;;;;6.30;2.95;;;21.80;99.90;;;;;;5091666;28;20217;-76
2022/06/11 07:31:16;;;;;;;4.22;1.92;;;21.90;99.90;;;;;;5091402;28;20209;-75
2022/06/11 07:33:44;;;;;;;5.25;1.90;;;22.20;99.90;;;;;;5091606;28;20629;-74
2022/06/11 07:36:12;;;;;;;2.15;1.65;;;22.30;99.90;;;;;;5091306;28;20205;-76
2022/06/11 07:38:39;;;;;;;3.42;1.73;;;22.30;99.90;;;;;;5091542;28;20243;-76
2022/06/11 07:41:06;;;;;;;4.57;1.70;;;22.40;99.90;;;;;;5090754;28;20233;-75
2022/06/11 07:43:35;;;;;;;5.13;1.90;;;22.40;99.90;;;;;;5082803;28;20238;-73
2022/06/11 07:46:02;;;;;;;4.22;1.48;;;22.50;99.90;;;;;;5072539;28;20206;-72
2022/06/11 07:48:29;;;;;;;2.35;1.50;;;23.10;99.90;;;;;;5090526;28;20726;-73
2022/06/11 07:50:56;;;;;;;1.90;1.42;;;23.10;99.90;;;;;;5085786;28;20245;-74
2022/06/11 07:53:24;;;;;;;1.52;1.35;;;23.10;99.90;;;;;;5090400;28;20206;-72
2022/06/11 07:55:53;;;;;;;2.65;1.60;;;24.60;99.90;;;;;;5091223;28;20250;-72
2022/06/11 07:58:24;;;;;;;2.92;1.52;;;24.50;99.90;;;;;;5081645;28;20251;-72
2022/06/11 08:00:54;;;;;;;4.80;1.48;;;24.10;99.90;;;;;;5091096;28;20229;-73
2022/06/11 08:03:22;;;;;;;8.65;2.00;;;24.30;99.90;;;;;;5090640;28;20588;-72
2022/06/11 08:05:49;;;;;;;3.63;1.80;;;25.10;99.90;;;;;;5076302;28;20197;-72
2022/06/11 08:08:18;;;;;;;6.00;2.08;;;26.90;99.90;;;;;;5079065;28;20206;-71
2022/06/11 08:10:46;;;;;;;4.32;1.55;;;28.40;99.90;;;;;;5087239;28;20213;-72
2022/06/11 08:13:14;;;;;;;1.83;1.73;;;27.50;99.90;;;;;;5083159;28;20263;-72
2022/06/11 08:15:43;;;;;;;3.65;1.52;;;27.70;99.90;;;;;;5086128;28;20258;-72
2022/06/11 08:18:12;;;;;;;1.35;1.10;;;26.00;99.90;;;;;;5090391;28;20302;-72
2022/06/11 08:20:40;;;;;;;6.03;1.75;;;25.30;99.90;;;;;;5089564;28;20680;-72
2022/06/11 08:23:08;;;;;;;2.20;1.58;;;24.90;99.90;;;;;;5090344;28;20741;-72
2022/06/11 08:25:36;;;;;;;3.45;1.90;;;24.80;99.90;;;;;;5089862;28;20205;-72
2022/06/11 08:28:04;;;;;;;1.92;1.58;;;24.50;99.90;;;;;;5070204;28;20210;-72
2022/06/11 08:30:33;;;;;;;5.93;2.05;;;24.50;99.90;;;;;;5070665;28;20248;-72
2022/06/11 08:33:00;;;;;;;5.35;1.80;;;24.80;99.90;;;;;;5070654;28;20248;-71
2022/06/11 08:35:31;;;;;;;2.70;1.38;;;25.00;99.90;;;;;;5070573;28;20205;-72
2022/06/11 08:37:58;;;;;;;5.03;1.48;;;25.00;99.90;;;;;;5070721;28;20214;-72
2022/06/11 08:40:31;;;;;;;4.10;1.27;;;25.20;99.90;;;;;;5070485;28;20216;-72
2022/06/11 08:43:01;;;;;;;2.35;1.42;;;25.30;99.90;;;;;;5070581;28;20283;-72
2022/06/11 08:45:37;;;;;;;5.05;1.50;;;25.50;99.90;;;;;;5070600;28;20206;-72
2022/06/11 08:48:14;;;;;;;1.98;1.10;;;25.70;99.90;;;;;;5069832;28;20206;-73
2022/06/11 08:50:52;;;;;;;2.35;1.75;;;25.90;99.90;;;;;;5069965;28;20276;-72
2022/06/11 08:53:20;;;;;;;2.17;1.65;;;25.90;99.90;;;;;;5069846;28;20206;-72
2022/06/11 08:55:47;;;;;;;4.38;1.67;;;26.20;99.90;;;;;;5070288;28;20236;-72
2022/06/11 08:58:23;;;;;;;2.88;1.30;;;26.40;99.90;;;;;;5069849;28;20297;-72
2022/06/11 09:01:06;;;;;;;7.40;1.60;;;26.60;99.90;;;;;;5070001;28;20669;-73
2022/06/11 09:04:00;;;;;;;1.55;1.27;;;27.30;99.90;;;;;;5070109;28;20255;-73
2022/06/11 09:06:43;;;;;;;2.33;1.55;;;27.60;99.90;;;;;;5068856;28;20206;-73
2022/06/11 09:09:17;;;;;;;5.10;1.73;;;29.80;99.90;;;;;;5089948;28;20229;-75
2022/06/11 09:11:57;;;;;;;4.00;1.55;;;34.10;99.90;;;;;;5090463;28;20208;-75
2022/06/11 09:14:48;;;;;;;3.63;2.30;;;36.60;99.90;;;;;;5089851;28;20201;-76
2022/06/11 09:17:35;;;;;;;1.77;1.23;;;37.30;99.90;;;;;;5069699;28;20210;-74
2022/06/11 09:20:14;;;;;;;1.48;1.38;;;34.90;99.90;;;;;;5073244;28;20682;-74
2022/06/11 09:23:19;;;;;;;3.05;1.40;;;32.30;99.90;;;;;;5072334;28;20239;-75
2022/06/11 09:26:00;;;;;;;1.75;1.40;;;31.10;99.90;;;;;;5031617;28;20194;-73
2022/06/11 09:28:38;;;;;;;3.92;1.40;;;33.70;99.90;;;;;;5067810;28;20687;-74
2022/06/11 09:31:12;;;;;;;2.38;1.65;;;36.20;99.90;;;;;;5073163;28;20773;-72
2022/06/11 09:33:42;;;;;;;2.50;1.55;;;37.30;99.90;;;;;;5073507;28;20208;-73
2022/06/11 09:36:15;;;;;;;2.97;1.73;;;35.80;99.90;;;;;;5072980;28;20201;-73
2022/06/11 09:38:55;;;;;;;4.75;1.90;;;36.10;99.90;;;;;;5073606;28;20198;-72
2022/06/11 09:41:30;;;;;;;6.55;2.50;;;35.40;99.90;;;;;;5072782;28;20817;-72
2022/06/11 09:44:07;;;;;;;1.80;1.65;;;37.90;99.90;;;;;;5073780;28;20686;-73
2022/06/11 09:46:41;;;;;;;2.13;1.48;;;37.90;99.90;;;;;;5073291;28;20254;-72
2022/06/11 09:49:20;;;;;;;2.20;1.20;;;37.40;99.90;;;;;;5072993;28;20237;-72
2022/06/11 09:51:52;;;;;;;2.40;1.67;;;38.00;99.90;;;;;;5073162;28;20201;-73
2022/06/11 09:54:43;;;;;;;2.22;1.90;;;36.70;99.90;;;;;;5072782;28;20201;-74
2022/06/11 09:57:21;;;;;;;3.75;1.13;;;36.10;99.90;;;;;;5059114;28;20205;-72
2022/06/11 09:59:52;;;;;;;4.65;1.70;;;35.60;99.90;;;;;;5073136;28;20676;-71
2022/06/11 10:02:28;;;;;;;3.78;1.92;;;36.70;99.90;;;;;;5065971;28;20229;-73
2022/06/11 10:04:56;;;;;;;1.90;1.40;;;37.60;99.90;;;;;;5072886;28;20201;-73
2022/06/11 10:07:28;;;;;;;3.00;1.40;;;39.20;99.90;;;;;;5081984;28;20223;-79
2022/06/11 10:10:02;;;;;;;2.40;1.20;;;40.60;99.90;;;;;;5070159;28;20238;-73
2022/06/11 10:12:36;;;;;;;3.50;1.52;;;38.40;99.90;;;;;;5067796;28;20734;-73
2022/06/11 10:15:12;;;;;;;2.80;1.40;;;38.90;99.90;;;;;;5072639;28;20209;-73
2022/06/11 10:17:46;;;;;;;1.60;1.30;;;40.20;99.90;;;;;;5072392;28;20672;-74
2022/06/11 10:20:19;;;;;;;1.95;1.67;;;41.50;99.90;;;;;;5059504;28;20209;-73
2022/06/11 10:22:50;;;;;;;2.97;1.75;;;42.60;99.90;;;;;;5072889;28;20221;-73
2022/06/11 10:25:26;;;;;;;4.35;2.00;;;42.10;99.90;;;;;;5058475;28;20212;-73
2022/06/11 10:28:03;;;;;;;2.33;1.30;;;39.80;99.90;;;;;;5072725;28;20197;-74
2022/06/11 10:30:46;;;;;;;1.48;1.17;;;39.70;99.90;;;;;;5059751;28;20202;-73
2022/06/11 10:33:21;;;;;;;5.43;4.47;;;39.10;99.90;;;;;;5072282;28;20292;-72
2022/06/11 10:35:54;;;;;;;2.75;1.52;;;38.60;99.90;;;;;;5067776;28;20205;-73
2022/06/11 10:38:31;;;;;;;3.13;1.52;;;33.40;99.90;;;;;;5077008;28;20231;-73
2022/06/11 10:41:02;;;;;;;2.58;1.48;;;31.80;99.90;;;;;;5081002;28;20219;-72
2022/06/11 10:43:35;;;;;;;3.00;1.85;;;30.80;99.90;;;;;;5085615;28;20221;-72
2022/06/11 10:46:03;;;;;;;3.67;1.75;;;29.70;99.90;;;;;;5086109;28;20820;-73
2022/06/11 10:48:33;;;;;;;3.97;1.40;;;29.90;99.90;;;;;;5086850;28;20205;-73
2022/06/11 10:51:06;;;;;;;2.38;1.55;;;30.00;99.90;;;;;;5081458;28;20212;-73
2022/06/11 10:53:43;;;;;;;1.88;1.52;;;30.00;99.90;;;;;;5084999;28;20721;-73
2022/06/11 10:56:18;;;;;;;2.78;1.45;;;30.10;99.90;;;;;;5082310;28;20205;-75
2022/06/11 10:58:48;;;;;;;1.65;1.55;;;29.70;99.90;;;;;;5083222;28;20208;-75
2022/06/11 11:01:20;;;;;;;4.20;1.80;;;30.00;99.90;;;;;;5066643;28;20250;-75
2022/06/11 11:03:50;;;;;;;2.70;1.50;;;30.20;99.90;;;;;;5088664;28;20237;-75
2022/06/11 11:06:26;;;;;;;2.92;1.50;;;30.30;99.90;;;;;;5071961;28;20202;-76
2022/06/11 11:08:56;;;;;;;3.17;1.55;;;30.50;99.90;;;;;;5072853;28;20217;-75
2022/06/11 11:11:26;;;;;;;2.67;1.65;;;30.50;99.90;;;;;;5071898;28;20632;-75
2022/06/11 11:14:05;;;;;;;2.95;1.90;;;29.90;99.90;;;;;;5072785;28;20210;-76
2022/06/11 11:16:37;;;;;;;3.42;1.85;;;30.20;99.90;;;;;;5072774;28;20201;-75
2022/06/11 11:19:13;;;;;;;3.80;2.22;;;30.20;99.90;;;;;;5073768;28;20292;-74
2022/06/11 11:21:49;;;;;;;2.58;1.70;;;30.40;99.90;;;;;;5073093;28;20580;-76
2022/06/11 11:24:19;;;;;;;4.03;2.15;;;30.20;99.90;;;;;;5075614;28;20587;-75
2022/06/11 11:26:51;;;;;;;4.00;1.70;;;30.40;99.90;;;;;;5074681;28;20254;-75
2022/06/11 11:29:24;;;;;;;7.63;1.73;;;30.40;99.90;;;;;;5077207;28;20202;-75
2022/06/11 11:31:57;;;;;;;3.97;1.35;;;30.50;99.90;;;;;;5075279;28;20214;-75
2022/06/11 11:34:26;;;;;;;3.75;1.48;;;30.50;99.90;;;;;;5078810;28;20202;-75
2022/06/11 11:36:59;;;;;;;3.90;1.60;;;30.30;99.90;;;;;;5075415;28;20256;-75
2022/06/11 11:39:29;;;;;;;2.58;1.98;;;30.40;99.90;;;;;;5081045;28;20254;-74
2022/06/11 11:42:18;;;;;;;1.65;1.35;;;30.80;99.90;;;;;;5076054;28;20717;-75
2022/06/11 11:44:49;;;;;;;1.73;1.58;;;31.10;99.90;;;;;;5072935;28;20233;-75
2022/06/11 11:47:21;;;;;;;4.60;1.88;;;31.20;99.90;;;;;;5078367;28;20629;-75
2022/06/11 11:49:55;;;;;;;2.75;1.63;;;31.30;99.90;;;;;;5081852;28;20252;-75
2022/06/11 11:52:25;;;;;;;4.88;2.65;;;31.50;99.90;;;;;;5080607;28;20206;-75
2022/06/11 11:54:58;;;;;;;2.70;1.60;;;31.50;99.90;;;;;;5082474;28;20246;-76
2022/06/11 11:57:31;;;;;;;1.40;1.13;;;31.60;99.90;;;;;;5070298;28;20202;-75
2022/06/11 12:00:02;;;;;;;2.05;1.50;;;31.60;99.90;;;;;;5070561;28;20301;-75
2022/06/11 12:02:36;;;;;;;4.50;1.70;;;31.50;99.90;;;;;;5066232;28;20248;-74
2022/06/11 12:05:12;;;;;;;3.15;1.63;;;31.50;99.90;;;;;;5070735;28;20247;-74
2022/06/11 12:07:42;;;;;;;5.05;1.40;;;31.60;99.90;;;;;;5090087;28;20297;-75
2022/06/11 12:10:35;;;;;;;1.30;1.20;;;31.40;99.90;;;;;;5090652;28;20262;-75
2022/06/11 12:13:18;;;;;;;1.90;1.40;;;31.50;99.90;;;;;;5090567;28;20205;-74
2022/06/11 12:15:53;;;;;;;1.58;1.17;;;31.60;99.90;;;;;;5091022;28;20615;-76
2022/06/11 12:18:26;;;;;;;1.52;1.23;;;31.60;99.90;;;;;;5090605;28;20543;-75
2022/06/11 12:20:56;;;;;;;2.13;1.10;;;31.60;99.90;;;;;;5090653;28;20205;-75
2022/06/11 12:23:30;;;;;;;2.83;1.58;;;31.80;99.90;;;;;;5090783;28;20381;-76
2022/06/11 12:26:00;;;;;;;1.85;1.20;;;31.30;99.90;;;;;;5091057;28;20213;-74
2022/06/11 12:28:33;;;;;;;1.63;1.42;;;31.50;99.90;;;;;;5090955;28;20584;-74
2022/06/11 12:31:00;;;;;;;5.65;1.83;;;31.40;99.90;;;;;;5090639;28;20201;-74
2022/06/11 12:33:28;;;;;;;2.22;0.90;;;31.50;99.90;;;;;;5091305;28;20236;-74
2022/06/11 12:36:05;;;;;;;2.15;1.00;;;31.80;99.90;;;;;;5090846;28;20209;-72
2022/06/11 12:38:44;;;;;;;1.63;1.27;;;31.90;99.90;;;;;;5090804;28;20302;-75
2022/06/11 12:41:22;;;;;;;1.67;1.58;;;32.00;99.90;;;;;;5089887;28;20209;-74
2022/06/11 12:43:57;;;;;;;2.10;1.48;;;32.00;99.90;;;;;;5083328;28;20229;-75
2022/06/11 12:46:33;;;;;;;2.22;1.30;;;32.10;99.90;;;;;;5068786;28;20201;-74
2022/06/11 12:49:13;;;;;;;1.90;1.80;;;32.30;99.90;;;;;;5073697;28;20198;-75
2022/06/11 12:52:00;;;;;;;2.40;1.15;;;32.50;99.90;;;;;;5076325;28;20247;-73
2022/06/11 12:54:36;;;;;;;1.27;1.23;;;32.30;99.90;;;;;;5069101;28;20201;-73
2022/06/11 12:57:23;;;;;;;1.65;1.20;;;32.10;99.90;;;;;;5086980;28;20202;-78
2022/06/11 13:00:06;;;;;;;2.65;1.10;;;32.30;99.90;;;;;;5091057;28;20205;-77
2022/06/11 13:02:49;;;;;;;1.45;1.35;;;32.30;99.90;;;;;;5075246;28;20765;-74
2022/06/11 13:05:35;;;;;;;1.10;1.00;;;32.30;99.90;;;;;;5073656;28;20231;-75
2022/06/11 13:08:21;;;;;;;1.25;1.10;;;32.30;99.90;;;;;;5063248;28;20550;-74
2022/06/11 13:10:55;;;;;;;1.42;1.10;;;32.10;99.90;;;;;;5075884;28;20204;-75
2022/06/11 13:13:50;;;;;;;3.38;1.25;;;32.30;99.90;;;;;;5074739;28;20206;-73